createdAt,value
2022-12-29T00:00:38.880Z,16.23
2022-12-29T00:03:13.845Z,15.87
2022-12-29T00:05:44.279Z,15.90
2022-12-29T00:08:14.606Z,16.80
2022-12-29T00:10:45.241Z,17.43
2022-12-29T00:13:31.709Z,18.37
2022-12-29T00:16:00.668Z,17.87
2022-12-29T00:18:29.825Z,17.93
2022-12-29T00:21:16.138Z,17.77
2022-12-29T00:24:04.389Z,18.93
2022-12-29T00:26:50.892Z,17.60
2022-12-29T00:29:37.908Z,19.03
2022-12-29T00:32:26.679Z,21.07
2022-12-29T00:35:10.726Z,21.17
2022-12-29T00:38:00.205Z,22.00
2022-12-29T00:40:46.741Z,21.90
2022-12-29T00:43:33.217Z,21.63
2022-12-29T00:46:01.868Z,20.70
2022-12-29T00:48:48.648Z,21.87
2022-12-29T00:51:17.347Z,21.27
2022-12-29T00:53:47.057Z,21.90
2022-12-29T00:56:16.082Z,21.03
2022-12-29T00:58:46.562Z,20.77
2022-12-29T01:01:15.345Z,22.13
2022-12-29T01:03:44.115Z,20.57
2022-12-29T01:06:13.627Z,20.83
2022-12-29T01:08:42.911Z,21.57
2022-12-29T01:11:14.202Z,20.47
2022-12-29T01:13:44.485Z,20.00
2022-12-29T01:16:13.329Z,20.00
2022-12-29T01:18:42.127Z,20.50
2022-12-29T01:21:13.664Z,19.33
2022-12-29T01:23:49.909Z,19.17
2022-12-29T01:26:19.679Z,18.43
2022-12-29T01:28:54.527Z,17.80
2022-12-29T01:31:23.596Z,17.40
2022-12-29T01:33:52.931Z,17.13
2022-12-29T01:36:22.004Z,17.27
2022-12-29T01:38:52.224Z,17.90
2022-12-29T01:41:21.381Z,17.03
2022-12-29T01:43:52.688Z,17.07
2022-12-29T01:46:42.060Z,17.73
2022-12-29T01:49:16.178Z,16.90
2022-12-29T01:51:49.629Z,16.47
2022-12-29T01:54:24.162Z,16.67
2022-12-29T01:56:55.891Z,16.33
2022-12-29T01:59:27.617Z,15.40
2022-12-29T02:01:59.298Z,16.10
2022-12-29T02:04:33.258Z,16.37
2022-12-29T02:07:09.270Z,16.23
2022-12-29T02:09:38.538Z,16.77
2022-12-29T02:12:09.574Z,17.07
2022-12-29T02:14:38.375Z,16.40
2022-12-29T02:17:21.994Z,16.17
2022-12-29T02:20:02.531Z,17.13
2022-12-29T02:22:56.554Z,16.03
2022-12-29T02:25:57.078Z,16.07
2022-12-29T02:28:37.424Z,15.53
2022-12-29T02:31:21.064Z,16.23
2022-12-29T02:33:58.720Z,15.30
2022-12-29T02:36:57.833Z,15.57
2022-12-29T02:39:44.231Z,14.33
2022-12-29T02:42:18.809Z,14.50
2022-12-29T02:45:08.551Z,15.27
2022-12-29T02:47:42.950Z,15.30
2022-12-29T02:50:26.715Z,15.23
2022-12-29T02:53:01.133Z,15.73
2022-12-29T02:55:29.822Z,15.10
2022-12-29T02:58:19.653Z,14.73
2022-12-29T03:00:57.707Z,16.00
2022-12-29T03:03:44.299Z,16.03
2022-12-29T03:06:34.360Z,16.57
2022-12-29T03:09:19.178Z,16.07
2022-12-29T03:12:00.136Z,17.07
2022-12-29T03:14:49.412Z,15.50
2022-12-29T03:17:37.659Z,16.40
2022-12-29T03:20:12.278Z,16.30
2022-12-29T03:22:43.840Z,15.47
2022-12-29T03:25:33.545Z,15.83
2022-12-29T03:28:09.007Z,15.50
2022-12-29T03:30:40.433Z,16.33
2022-12-29T03:33:12.127Z,16.20
2022-12-29T03:35:48.472Z,15.80
2022-12-29T03:38:20.030Z,15.63
2022-12-29T03:40:54.514Z,16.90
2022-12-29T03:43:23.497Z,17.27
2022-12-29T03:45:52.172Z,18.90
2022-12-29T03:48:21.085Z,19.47
2022-12-29T03:50:49.710Z,17.87
2022-12-29T03:53:18.712Z,18.07
2022-12-29T03:55:47.656Z,18.63
2022-12-29T03:58:16.287Z,18.87
2022-12-29T04:00:46.621Z,19.27
2022-12-29T04:03:15.300Z,19.00
2022-12-29T04:05:43.910Z,18.70
2022-12-29T04:08:12.616Z,19.17
2022-12-29T04:10:41.437Z,19.50
2022-12-29T04:13:10.065Z,19.50
2022-12-29T04:15:40.345Z,20.10
2022-12-29T04:18:09.046Z,19.00
2022-12-29T04:20:41.770Z,19.10
2022-12-29T04:23:10.919Z,20.60
2022-12-29T04:25:41.062Z,19.10
2022-12-29T04:28:09.741Z,20.33
2022-12-29T04:30:38.567Z,20.07
2022-12-29T04:33:07.113Z,21.33
2022-12-29T04:35:36.372Z,20.30
2022-12-29T04:38:05.529Z,20.47
2022-12-29T04:40:34.241Z,19.47
2022-12-29T04:43:03.148Z,20.60
2022-12-29T04:45:31.872Z,19.30
2022-12-29T04:48:00.674Z,20.10
2022-12-29T04:50:30.403Z,21.23
2022-12-29T04:52:59.142Z,20.33
2022-12-29T04:55:28.194Z,19.63
2022-12-29T04:58:08.201Z,20.73
2022-12-29T05:00:48.658Z,19.20
2022-12-29T05:03:25.932Z,19.07
2022-12-29T05:06:04.959Z,20.60
2022-12-29T05:08:35.836Z,19.83
2022-12-29T05:11:07.864Z,19.93
2022-12-29T05:13:38.801Z,20.60
2022-12-29T05:16:12.945Z,21.13
2022-12-29T05:18:42.254Z,19.73
2022-12-29T05:21:15.604Z,20.73
2022-12-29T05:23:48.013Z,20.33
2022-12-29T05:26:20.174Z,19.70
2022-12-29T05:28:56.003Z,20.30
2022-12-29T05:31:48.216Z,19.53
2022-12-29T05:34:34.629Z,20.93
2022-12-29T05:37:01.182Z,20.03
2022-12-29T05:39:34.307Z,20.37
2022-12-29T05:42:06.721Z,19.90
2022-12-29T05:44:47.744Z,20.27
2022-12-29T05:47:18.534Z,19.87
2022-12-29T05:49:52.155Z,19.37
2022-12-29T05:52:50.144Z,18.50
2022-12-29T05:55:28.464Z,18.33
2022-12-29T05:58:04.678Z,18.60
2022-12-29T06:00:41.541Z,19.50
2022-12-29T06:03:09.404Z,20.10
2022-12-29T06:05:42.125Z,21.40
2022-12-29T06:08:24.096Z,19.40
2022-12-29T06:11:12.321Z,18.77
2022-12-29T06:13:45.464Z,19.43
2022-12-29T06:16:19.335Z,18.30
2022-12-29T06:18:55.116Z,17.17
2022-12-29T06:21:33.450Z,17.93
2022-12-29T06:24:05.672Z,17.70
2022-12-29T06:26:38.299Z,18.33
2022-12-29T06:29:13.182Z,18.63
2022-12-29T06:31:54.778Z,19.43
2022-12-29T06:34:27.857Z,19.77
2022-12-29T06:37:04.066Z,19.40
2022-12-29T06:43:02.890Z,17.00
2022-12-29T06:45:37.732Z,17.20
2022-12-29T06:48:10.671Z,16.97
2022-12-29T06:50:54.915Z,17.30
2022-12-29T06:53:27.024Z,17.53
2022-12-29T06:56:22.483Z,17.17
2022-12-29T07:08:35.594Z,18.70
2022-12-29T07:11:16.238Z,21.00
2022-12-29T07:14:12.345Z,21.13
2022-12-29T07:17:10.285Z,30.90
2022-12-29T07:19:40.194Z,23.17
2022-12-29T07:28:04.730Z,24.60
2022-12-29T07:31:05.638Z,23.63
2022-12-29T07:33:10.846Z,22.80
2022-12-29T07:35:39.955Z,23.00
2022-12-29T07:38:21.048Z,22.50
2022-12-29T07:40:49.480Z,21.43
2022-12-29T07:43:29.287Z,21.53
2022-12-29T07:49:19.818Z,21.50
2022-12-29T07:51:56.331Z,21.63
2022-12-29T07:54:43.645Z,24.10
2022-12-29T07:57:29.663Z,22.63
2022-12-29T07:59:58.562Z,21.67
2022-12-29T08:02:56.589Z,21.97
2022-12-29T08:07:12.927Z,25.40
2022-12-29T08:08:48.028Z,22.77
2022-12-29T08:11:43.668Z,22.07
2022-12-29T08:20:15.901Z,20.30
2022-12-29T08:20:55.835Z,20.40
2022-12-29T08:23:03.305Z,20.60
2022-12-29T08:25:45.283Z,20.30
2022-12-29T08:28:41.751Z,20.73
2022-12-29T08:31:20.314Z,20.53
2022-12-29T08:38:16.539Z,20.57
2022-12-29T08:49:16.264Z,20.03
2022-12-29T08:51:54.416Z,19.77
2022-12-29T08:54:18.121Z,20.23
2022-12-29T08:56:56.934Z,20.67
2022-12-29T08:59:30.056Z,20.87
2022-12-29T09:02:02.838Z,20.07
2022-12-29T09:04:38.653Z,21.07
2022-12-29T09:07:11.898Z,20.80
2022-12-29T09:09:51.740Z,20.80
2022-12-29T09:12:47.863Z,20.07
2022-12-29T09:15:13.973Z,18.60
2022-12-29T09:17:44.671Z,20.93
2022-12-29T09:20:15.625Z,19.77
2022-12-29T09:22:44.723Z,20.60
2022-12-29T09:25:14.240Z,18.73
2022-12-29T09:27:42.989Z,19.57
2022-12-29T09:30:15.455Z,19.90
2022-12-29T09:32:45.836Z,18.90
2022-12-29T09:35:19.209Z,21.73
2022-12-29T09:37:47.861Z,20.30
2022-12-29T09:40:31.545Z,20.90
2022-12-29T09:47:08.024Z,19.60
2022-12-29T09:52:59.928Z,20.33
2022-12-29T09:55:45.329Z,20.27
2022-12-29T09:58:42.898Z,20.77
2022-12-29T10:01:46.562Z,21.17
2022-12-29T10:14:18.920Z,19.63
2022-12-29T10:24:09.176Z,20.83
2022-12-29T10:33:06.341Z,21.47
2022-12-29T10:37:00.865Z,22.40
2022-12-29T10:39:30.785Z,21.63
2022-12-29T10:42:38.344Z,22.87
2022-12-29T10:45:08.445Z,20.17
2022-12-29T10:47:40.026Z,20.87
2022-12-29T10:50:09.397Z,19.80
2022-12-29T10:52:56.844Z,20.27
2022-12-29T11:05:20.079Z,21.00
2022-12-29T11:11:00.440Z,20.77
2022-12-29T11:14:00.515Z,21.40
2022-12-29T11:16:55.585Z,20.73
2022-12-29T11:29:32.639Z,21.80
2022-12-29T11:35:41.174Z,20.57
2022-12-29T11:45:41.506Z,20.17
2022-12-29T11:56:45.050Z,18.03
2022-12-29T12:01:47.726Z,16.40
2022-12-29T12:04:28.336Z,18.77
2022-12-29T12:07:15.937Z,17.93
2022-12-29T12:09:50.675Z,17.60
2022-12-29T12:12:30.027Z,18.77
2022-12-29T12:15:01.019Z,18.73
2022-12-29T12:17:37.332Z,18.90
2022-12-29T12:20:09.092Z,19.10
2022-12-29T12:22:48.849Z,19.23
2022-12-29T12:25:29.298Z,20.57
2022-12-29T12:28:09.912Z,19.60
2022-12-29T12:30:41.873Z,20.10
2022-12-29T12:33:16.641Z,20.37
2022-12-29T12:35:51.585Z,19.90
2022-12-29T12:38:44.676Z,20.20
2022-12-29T12:41:25.564Z,20.40
2022-12-29T12:44:06.232Z,20.53
2022-12-29T12:46:41.066Z,20.53
2022-12-29T12:49:44.478Z,20.43
2022-12-29T12:52:40.310Z,19.37
2022-12-29T12:55:31.286Z,20.10
2022-12-29T12:58:11.772Z,21.03
2022-12-29T13:00:46.084Z,18.77
2022-12-29T13:03:40.258Z,19.05
2022-12-29T13:06:27.137Z,18.95
2022-12-29T13:09:17.086Z,18.67
2022-12-29T13:12:13.033Z,17.97
2022-12-29T13:15:02.560Z,18.13
2022-12-29T13:17:34.275Z,17.50
2022-12-29T13:20:33.177Z,18.10
2022-12-29T13:23:21.384Z,18.00
2022-12-29T13:26:02.044Z,18.37
2022-12-29T13:28:42.529Z,18.77
2022-12-29T13:31:37.192Z,18.47
2022-12-29T13:34:28.837Z,19.90
2022-12-29T13:37:01.162Z,19.17
2022-12-29T13:39:42.032Z,18.77
2022-12-29T13:42:16.162Z,20.43
2022-12-29T13:45:05.589Z,19.90
2022-12-29T13:47:37.179Z,20.23
2022-12-29T13:50:09.178Z,19.50
2022-12-29T13:52:40.784Z,19.92
2022-12-29T13:55:29.188Z,19.73
2022-12-29T13:58:06.681Z,18.40
2022-12-29T14:00:40.946Z,20.65
2022-12-29T14:03:26.507Z,19.55
2022-12-29T14:06:06.555Z,19.40
2022-12-29T14:08:36.857Z,20.45
2022-12-29T14:11:08.437Z,21.27
2022-12-29T14:13:40.985Z,21.97
2022-12-29T14:16:12.874Z,21.93
2022-12-29T14:18:46.797Z,20.83
2022-12-29T14:21:26.441Z,21.50
2022-12-29T14:23:55.428Z,22.13
2022-12-29T14:26:36.500Z,22.67
2022-12-29T14:29:27.819Z,23.47
2022-12-29T14:31:56.893Z,21.90
2022-12-29T14:34:31.252Z,24.27
2022-12-29T14:37:04.208Z,24.60
2022-12-29T14:42:43.008Z,24.50
2022-12-29T14:45:23.182Z,24.20
2022-12-29T14:47:55.591Z,24.80
2022-12-29T14:50:36.246Z,25.43
2022-12-29T14:53:08.139Z,24.30
2022-12-29T14:55:59.207Z,24.00
2022-12-29T14:58:36.514Z,24.23
2022-12-29T15:01:05.381Z,24.77
2022-12-29T15:03:41.157Z,26.57
2022-12-29T15:06:16.816Z,25.43
2022-12-29T15:09:25.583Z,24.37
2022-12-29T15:17:55.830Z,24.27
2022-12-29T15:20:32.690Z,25.27
2022-12-29T15:26:34.861Z,25.90
2022-12-29T15:35:43.257Z,26.17
2022-12-29T15:38:42.953Z,31.23
2022-12-29T15:42:46.763Z,26.17
2022-12-29T15:48:02.425Z,27.43
2022-12-29T15:57:05.366Z,25.77
2022-12-29T16:06:04.008Z,24.70
2022-12-29T16:08:41.134Z,26.53
2022-12-29T16:11:31.291Z,26.47
2022-12-29T16:14:07.838Z,26.27
2022-12-29T16:16:39.815Z,27.17
2022-12-29T16:19:15.406Z,27.33
2022-12-29T16:21:53.282Z,27.83
2022-12-29T16:24:38.151Z,27.97
2022-12-29T16:27:25.522Z,30.83
2022-12-29T16:30:00.483Z,30.37
2022-12-29T16:32:39.437Z,30.63
2022-12-29T16:35:44.385Z,29.53
2022-12-29T16:39:05.771Z,31.23
2022-12-29T16:44:32.894Z,30.57
2022-12-29T16:47:25.574Z,32.40
2022-12-29T16:55:56.652Z,52.47
2022-12-29T17:01:30.634Z,65.07
2022-12-29T17:04:19.856Z,68.97
2022-12-29T17:10:07.074Z,66.07
2022-12-29T17:12:55.660Z,74.47
2022-12-29T17:15:45.274Z,72.93
2022-12-29T17:18:33.658Z,72.53
2022-12-29T17:21:26.955Z,68.30
2022-12-29T17:30:20.261Z,56.77
2022-12-29T17:33:10.061Z,47.87
2022-12-29T17:42:09.176Z,42.13
2022-12-29T17:48:30.548Z,43.67
2022-12-29T17:53:59.739Z,43.87
2022-12-29T18:06:20.731Z,55.60
2022-12-29T18:09:01.719Z,54.73
2022-12-29T18:11:49.637Z,53.37
2022-12-29T18:14:29.876Z,49.03
2022-12-29T18:17:00.632Z,51.90
2022-12-29T18:22:49.547Z,49.33
2022-12-29T18:31:50.124Z,48.80
2022-12-29T18:34:24.691Z,47.73
2022-12-29T18:43:38.539Z,48.30
2022-12-29T18:49:02.720Z,46.90
2022-12-29T18:51:54.600Z,46.90
2022-12-29T18:57:49.825Z,44.57
2022-12-29T19:00:21.337Z,43.27
2022-12-29T19:02:55.051Z,45.40
2022-12-29T19:07:40.570Z,43.07
2022-12-29T19:08:32.222Z,39.50
2022-12-29T19:11:09.306Z,38.97
2022-12-29T19:13:54.826Z,40.03
2022-12-29T19:16:26.332Z,41.57
2022-12-29T19:19:09.228Z,39.00
2022-12-29T19:21:28.237Z,37.83
2022-12-29T19:23:57.416Z,39.67
2022-12-29T19:26:36.249Z,39.50
2022-12-29T19:29:06.644Z,39.23
2022-12-29T19:31:36.053Z,36.77
2022-12-29T19:34:04.959Z,37.40
2022-12-29T19:36:40.903Z,36.07
2022-12-29T19:39:09.741Z,35.40
2022-12-29T19:41:39.114Z,35.10
2022-12-29T19:44:08.597Z,36.60
2022-12-29T19:46:41.874Z,38.00
2022-12-29T19:49:13.045Z,32.73
2022-12-29T19:54:33.580Z,34.40
2022-12-29T20:00:03.746Z,36.37
2022-12-29T20:02:35.465Z,43.10
2022-12-29T20:05:04.761Z,42.50
2022-12-29T20:07:33.895Z,41.80
2022-12-29T20:10:03.393Z,42.23
2022-12-29T20:12:33.397Z,37.70
2022-12-29T20:20:49.184Z,34.13
2022-12-29T20:23:18.001Z,33.27
2022-12-29T20:25:47.696Z,33.17
2022-12-29T20:28:17.121Z,32.07
2022-12-29T20:30:46.313Z,31.73
2022-12-29T20:33:25.967Z,32.77
2022-12-29T20:35:55.109Z,32.57
2022-12-29T20:38:23.987Z,35.67
2022-12-29T20:43:48.392Z,35.27
2022-12-29T20:53:21.028Z,38.70
2022-12-29T20:59:29.036Z,49.33
2022-12-29T21:08:48.377Z,46.57
2022-12-29T21:11:18.651Z,38.23
2022-12-29T21:13:47.492Z,51.53
2022-12-29T21:16:19.115Z,60.10
2022-12-29T21:18:51.411Z,56.83
2022-12-29T21:21:23.376Z,60.80
2022-12-29T21:23:55.960Z,62.57
2022-12-29T21:26:26.039Z,68.37
2022-12-29T21:28:56.425Z,68.87
2022-12-29T21:31:36.356Z,73.10
2022-12-29T21:34:09.715Z,72.57
2022-12-29T21:36:41.680Z,72.60
2022-12-29T21:39:11.785Z,74.87
2022-12-29T21:41:42.350Z,74.87
2022-12-29T21:44:30.467Z,72.20
2022-12-29T21:47:00.415Z,66.87
2022-12-29T21:49:31.761Z,64.77
2022-12-29T21:52:03.408Z,74.90
2022-12-29T21:54:56.591Z,66.43
2022-12-29T21:57:48.512Z,73.73
2022-12-29T22:00:35.216Z,72.90
2022-12-29T22:03:30.935Z,71.30
2022-12-29T22:06:20.137Z,72.40
2022-12-29T22:09:12.035Z,73.63
2022-12-29T22:11:58.779Z,71.10
2022-12-29T22:14:27.431Z,68.47
2022-12-29T22:17:14.443Z,68.23
2022-12-29T22:19:42.947Z,66.17
2022-12-29T22:22:11.527Z,67.50
2022-12-29T22:24:40.111Z,62.27
2022-12-29T22:27:08.866Z,57.93
2022-12-29T22:29:37.495Z,54.13
2022-12-29T22:32:06.302Z,48.43
2022-12-29T22:34:34.973Z,48.60
2022-12-29T22:37:03.677Z,48.77
2022-12-29T22:39:32.284Z,44.73
2022-12-29T22:42:00.915Z,42.47
2022-12-29T22:44:29.568Z,40.27
2022-12-29T22:47:00.389Z,39.53
2022-12-29T22:49:29.523Z,38.33
2022-12-29T22:51:58.080Z,40.87
2022-12-29T22:54:26.975Z,41.67
2022-12-29T22:56:55.617Z,40.60
2022-12-29T22:59:26.101Z,40.07
2022-12-29T23:01:55.052Z,41.20
2022-12-29T23:05:01.896Z,40.80
2022-12-29T23:06:54.210Z,45.80
2022-12-29T23:09:24.090Z,46.10
2022-12-29T23:11:53.515Z,43.70
2022-12-29T23:14:22.168Z,44.50
2022-12-29T23:16:50.739Z,46.83
2022-12-29T23:19:19.536Z,47.67
2022-12-29T23:21:48.134Z,48.33
2022-12-29T23:24:16.828Z,49.80
2022-12-29T23:26:48.264Z,51.23
2022-12-29T23:29:19.613Z,51.47
2022-12-29T23:31:54.570Z,52.93
2022-12-29T23:34:22.611Z,54.03
2022-12-29T23:36:51.544Z,51.13
2022-12-29T23:39:24.572Z,49.57
2022-12-29T23:41:54.053Z,50.43
2022-12-29T23:44:22.724Z,51.90
2022-12-29T23:46:51.484Z,52.30
2022-12-29T23:49:20.190Z,52.93
2022-12-29T23:51:48.826Z,51.17
2022-12-29T23:54:19.257Z,53.23
2022-12-29T23:56:48.132Z,51.57
2022-12-29T23:59:16.924Z,54.70
